Time;durP1;ratioP1;P1;durP2;ratioP2;P2;SDS_P1;SDS_P2;PMS_P1;PMS_P2;Temp;Humidity;BMP_temperature;BMP_pressure;BME280_temperature;BME280_humidity;BME280_pressure;Samples;Min_cycle;Max_cycle;Signal;HPM_P1;HPM_P2
2022/06/24 00:02:00;;;;;;;3.50;2.80;;;21.10;88.50;;;;;;5014965;28;20045;-80
2022/06/24 00:04:28;;;;;;;3.85;2.85;;;21.10;88.60;;;;;;5027116;28;20052;-80
2022/06/24 00:06:56;;;;;;;3.55;2.80;;;21.10;90.10;;;;;;5015169;28;20088;-79
2022/06/24 00:09:26;;;;;;;3.05;2.38;;;21.10;89.10;;;;;;5009523;28;20057;-75
2022/06/24 00:12:10;;;;;;;4.18;2.80;;;21.00;89.30;;;;;;5026301;28;20127;-79
2022/06/24 00:14:38;;;;;;;3.10;2.90;;;21.00;85.30;;;;;;5017624;28;20045;-81
2022/06/24 00:17:09;;;;;;;4.50;2.80;;;20.90;86.20;;;;;;5021972;28;20056;-79
2022/06/24 00:19:53;;;;;;;3.03;2.70;;;20.80;85.90;;;;;;5029042;28;20694;-77
2022/06/24 00:22:19;;;;;;;5.05;2.92;;;20.80;87.00;;;;;;5019451;28;20128;-78
2022/06/24 00:24:45;;;;;;;2.90;2.63;;;20.70;88.60;;;;;;5026742;28;20056;-79
2022/06/24 00:27:17;;;;;;;3.42;3.13;;;20.60;89.30;;;;;;5048859;28;20044;-79
2022/06/24 00:29:43;;;;;;;3.72;2.88;;;20.60;90.20;;;;;;5034641;28;20091;-80
2022/06/24 00:32:09;;;;;;;3.05;2.67;;;20.60;90.70;;;;;;5032747;28;20152;-76
2022/06/24 00:34:38;;;;;;;3.72;3.40;;;20.60;91.10;;;;;;5028528;28;20500;-77
2022/06/24 00:37:28;;;;;;;3.10;2.90;;;20.60;91.50;;;;;;5029737;28;20076;-79
2022/06/24 00:40:10;;;;;;;3.33;3.03;;;20.50;91.50;;;;;;5018064;28;20087;-78
2022/06/24 00:42:44;;;;;;;5.53;3.28;;;20.50;91.90;;;;;;5035956;28;20056;-77
2022/06/24 00:45:55;;;;;;;5.38;3.17;;;20.40;92.10;;;;;;5032826;28;20044;-75
2022/06/24 00:48:23;;;;;;;2.83;2.67;;;20.40;91.90;;;;;;5019709;28;20061;-79
2022/06/24 00:50:49;;;;;;;3.13;2.75;;;20.40;92.40;;;;;;5028897;28;20152;-78
2022/06/24 00:53:15;;;;;;;4.75;3.50;;;20.40;92.50;;;;;;5026722;28;20045;-79
2022/06/24 00:55:42;;;;;;;2.67;2.47;;;20.30;92.60;;;;;;5031518;28;20041;-81
2022/06/24 00:58:16;;;;;;;3.53;2.58;;;20.30;92.60;;;;;;5020497;28;20041;-81
2022/06/24 01:00:49;;;;;;;2.90;2.70;;;20.20;92.90;;;;;;5024920;28;20048;-77
2022/06/24 01:03:15;;;;;;;;;;;20.10;92.90;;;;;;5033201;28;20544;-81
2022/06/24 01:05:42;;;;;;;2.67;2.47;;;20.00;92.50;;;;;;5025578;28;19986;-79
2022/06/24 01:08:13;;;;;;;4.30;2.60;;;20.00;93.10;;;;;;5029954;28;20052;-80
2022/06/24 01:10:40;;;;;;;4.97;2.70;;;20.00;93.20;;;;;;5023936;28;20048;-81
2022/06/24 01:13:10;;;;;;;4.22;3.08;;;19.90;93.30;;;;;;5034219;28;20052;-79
2022/06/24 01:15:37;;;;;;;3.75;3.05;;;19.90;93.80;;;;;;5032270;28;20141;-80
2022/06/24 01:18:03;;;;;;;3.45;3.08;;;19.80;94.00;;;;;;5028663;28;20036;-80
2022/06/24 01:20:29;;;;;;;4.57;3.20;;;19.80;94.30;;;;;;5027031;28;20064;-78
2022/06/24 01:22:54;;;;;;;3.67;3.03;;;19.80;94.50;;;;;;5037745;28;20049;-81
2022/06/24 01:25:20;;;;;;;2.75;2.55;;;19.80;95.20;;;;;;5029376;28;20599;-78
2022/06/24 01:27:46;;;;;;;3.97;2.90;;;19.70;94.90;;;;;;5034140;28;20159;-79
2022/06/24 01:30:12;;;;;;;5.20;3.35;;;19.70;94.80;;;;;;5031648;28;20052;-78
2022/06/24 01:32:37;;;;;;;3.47;3.17;;;19.60;95.20;;;;;;5035142;28;20915;-79
2022/06/24 01:35:04;;;;;;;3.85;2.72;;;19.60;95.20;;;;;;5021837;28;20052;-80
2022/06/24 01:37:29;;;;;;;3.33;3.10;;;19.60;95.20;;;;;;5028412;28;20072;-76
2022/06/24 01:39:55;;;;;;;3.10;2.78;;;19.60;95.20;;;;;;5033857;28;20845;-78
2022/06/24 01:42:21;;;;;;;3.47;3.10;;;19.60;95.10;;;;;;5034778;28;20045;-79
2022/06/24 01:44:47;;;;;;;2.92;2.72;;;19.50;95.30;;;;;;5027545;28;20041;-79
2022/06/24 01:47:12;;;;;;;3.22;3.03;;;19.50;95.80;;;;;;5029866;28;20152;-80
2022/06/24 01:49:38;;;;;;;3.33;3.03;;;19.50;95.70;;;;;;5035168;28;20575;-75
2022/06/24 01:52:04;;;;;;;4.85;2.90;;;19.40;95.50;;;;;;5031623;28;20072;-80
2022/06/24 01:54:30;;;;;;;3.13;2.75;;;19.40;96.00;;;;;;5031464;28;20548;-78
2022/06/24 01:56:55;;;;;;;5.05;3.20;;;19.40;96.30;;;;;;5024840;28;20149;-79
2022/06/24 01:59:21;;;;;;;3.83;3.45;;;19.40;96.10;;;;;;5035750;28;20048;-78
2022/06/24 02:01:47;;;;;;;3.38;3.05;;;19.40;96.10;;;;;;5029136;28;20081;-78
2022/06/24 02:04:13;;;;;;;4.07;3.30;;;19.30;95.90;;;;;;5033237;28;20059;-77
2022/06/24 02:06:39;;;;;;;3.80;3.30;;;19.30;96.20;;;;;;5023596;28;20045;-79
2022/06/24 02:09:06;;;;;;;4.68;2.92;;;19.30;96.30;;;;;;5026234;28;20042;-81
2022/06/24 02:14:17;;;;;;;6.07;3.72;;;19.30;96.70;;;;;;5029962;28;20132;-80
2022/06/24 02:16:43;;;;;;;3.35;2.88;;;19.20;96.80;;;;;;5018979;28;20049;-76
2022/06/24 02:19:09;;;;;;;8.80;3.53;;;19.20;97.00;;;;;;5028579;28;20064;-77
2022/06/24 02:21:36;;;;;;;3.10;2.88;;;19.30;96.90;;;;;;5027242;28;20389;-80
2022/06/24 02:24:02;;;;;;;4.00;3.50;;;19.30;96.90;;;;;;5031005;28;20140;-81
2022/06/24 02:26:28;;;;;;;6.15;2.78;;;19.30;95.80;;;;;;5025256;28;20049;-80
2022/06/24 02:28:54;;;;;;;3.70;3.40;;;19.30;95.80;;;;;;5029225;28;20429;-79
2022/06/24 02:31:20;;;;;;;6.60;3.00;;;19.30;95.70;;;;;;5038775;28;20049;-79
2022/06/24 02:33:49;;;;;;;5.55;4.00;;;19.30;96.10;;;;;;5035700;28;20053;-79
2022/06/24 02:36:15;;;;;;;3.83;3.53;;;19.30;96.20;;;;;;5032386;28;20056;-80
2022/06/24 02:38:41;;;;;;;3.35;3.05;;;19.50;96.20;;;;;;5039076;28;20045;-78
2022/06/24 02:41:07;;;;;;;7.28;3.80;;;19.30;96.20;;;;;;5029443;28;20164;-79
2022/06/24 02:43:35;;;;;;;4.90;4.05;;;19.20;96.10;;;;;;5023776;28;20048;-79
2022/06/24 02:46:02;;;;;;;6.43;3.72;;;19.20;95.60;;;;;;5031226;28;20080;-77
2022/06/24 02:48:29;;;;;;;5.65;4.20;;;19.20;95.50;;;;;;5018540;28;20053;-79
2022/06/24 02:50:58;;;;;;;4.53;4.03;;;19.10;95.40;;;;;;5016456;28;20136;-76
2022/06/24 02:53:24;;;;;;;5.20;4.55;;;19.10;95.20;;;;;;5032433;28;20053;-78
2022/06/24 02:55:57;;;;;;;6.22;4.03;;;19.10;95.30;;;;;;5027847;28;20053;-80
2022/06/24 02:58:23;;;;;;;5.43;4.60;;;19.10;95.20;;;;;;5026625;28;20051;-80
2022/06/24 03:00:49;;;;;;;4.85;4.38;;;19.10;95.40;;;;;;5032888;28;20045;-79
2022/06/24 03:03:16;;;;;;;6.07;4.38;;;19.00;95.40;;;;;;5030750;28;20567;-80
2022/06/24 03:05:43;;;;;;;5.93;4.53;;;19.10;95.60;;;;;;5031288;28;20052;-77
2022/06/24 03:08:11;;;;;;;5.78;4.43;;;19.10;95.70;;;;;;5022988;28;20142;-80
2022/06/24 03:10:38;;;;;;;6.15;4.00;;;19.10;96.10;;;;;;5016646;28;20053;-78
2022/06/24 03:13:04;;;;;;;7.57;3.72;;;19.10;96.30;;;;;;5022701;28;20045;-79
2022/06/24 03:15:30;;;;;;;5.97;4.72;;;19.10;96.90;;;;;;5029192;28;20045;-75
2022/06/24 03:17:56;;;;;;;9.85;5.32;;;19.20;96.70;;;;;;5025743;28;20048;-79
2022/06/24 03:20:22;;;;;;;4.25;3.85;;;19.10;96.60;;;;;;5029910;28;21368;-77
2022/06/24 03:22:48;;;;;;;5.22;4.60;;;19.20;97.10;;;;;;5032294;28;20063;-79
2022/06/24 03:25:14;;;;;;;6.55;4.55;;;19.20;97.00;;;;;;5032676;28;20059;-78
2022/06/24 03:27:40;;;;;;;4.43;4.03;;;19.20;96.80;;;;;;5025388;28;20051;-80
2022/06/24 03:30:07;;;;;;;4.78;4.03;;;19.30;97.30;;;;;;5032169;28;20041;-74
2022/06/24 03:32:33;;;;;;;4.22;3.83;;;19.30;97.60;;;;;;5031107;28;20041;-80
2022/06/24 03:34:59;;;;;;;6.47;4.40;;;19.40;97.80;;;;;;5030709;28;20087;-79
2022/06/24 03:37:26;;;;;;;5.70;5.18;;;19.40;97.70;;;;;;5022142;28;20053;-78
2022/06/24 03:39:51;;;;;;;6.93;4.40;;;19.50;97.60;;;;;;5032757;28;20037;-78
2022/06/24 03:42:17;;;;;;;4.68;4.20;;;19.50;97.30;;;;;;5032139;28;20064;-78
2022/06/24 03:44:43;;;;;;;4.78;4.00;;;19.50;97.00;;;;;;5034704;28;20512;-80
2022/06/24 03:47:08;;;;;;;5.18;4.22;;;19.60;96.60;;;;;;5031410;28;20156;-81
2022/06/24 03:49:34;;;;;;;4.32;3.92;;;19.60;96.40;;;;;;5024034;28;20046;-77
2022/06/24 03:52:00;;;;;;;6.03;4.45;;;19.60;96.50;;;;;;5023608;28;20073;-77
2022/06/24 03:54:25;;;;;;;7.00;5.43;;;19.60;95.80;;;;;;5039225;28;20052;-80
2022/06/24 03:56:51;;;;;;;5.28;4.80;;;19.60;95.50;;;;;;5024423;28;20063;-80
2022/06/24 03:59:17;;;;;;;4.75;4.25;;;19.60;95.10;;;;;;5016249;28;20055;-77
2022/06/24 04:01:43;;;;;;;8.18;4.78;;;19.60;94.90;;;;;;5032577;28;20077;-79
2022/06/24 04:04:09;;;;;;;5.70;4.30;;;19.60;94.70;;;;;;5027320;28;20050;-77
2022/06/24 04:06:35;;;;;;;5.40;4.97;;;19.60;94.40;;;;;;5031181;28;20802;-82
2022/06/24 04:09:01;;;;;;;9.40;4.95;;;19.60;94.40;;;;;;5028010;28;20477;-77
2022/06/24 04:11:26;;;;;;;18.98;5.38;;;19.60;94.30;;;;;;5026088;28;21619;-78
2022/06/24 04:13:52;;;;;;;5.20;4.70;;;19.50;94.50;;;;;;5040222;28;20045;-79
2022/06/24 04:16:18;;;;;;;5.53;5.03;;;19.50;94.60;;;;;;5032174;28;20045;-80
2022/06/24 04:18:44;;;;;;;6.22;4.93;;;19.50;94.80;;;;;;5027330;28;20055;-79
2022/06/24 04:21:11;;;;;;;6.25;5.05;;;19.50;94.90;;;;;;5030944;28;20134;-77
2022/06/24 04:23:37;;;;;;;7.40;5.63;;;19.50;94.90;;;;;;5034846;28;20136;-77
2022/06/24 04:26:03;;;;;;;4.70;4.20;;;19.50;95.20;;;;;;5048539;28;20052;-81
2022/06/24 04:28:29;;;;;;;7.68;5.68;;;19.60;95.60;;;;;;5023823;28;20045;-80
2022/06/24 04:30:54;;;;;;;6.75;5.03;;;19.70;95.70;;;;;;5037995;28;20378;-78
2022/06/24 04:33:20;;;;;;;5.45;4.85;;;19.70;95.60;;;;;;5036194;28;20053;-80
2022/06/24 04:35:46;;;;;;;5.82;5.32;;;19.80;95.60;;;;;;5030861;28;20053;-78
2022/06/24 04:38:11;;;;;;;6.25;5.65;;;19.90;95.40;;;;;;5031764;28;20107;-78
2022/06/24 04:40:37;;;;;;;5.13;4.72;;;20.00;94.80;;;;;;5038607;28;20091;-78
2022/06/24 04:43:03;;;;;;;6.15;5.50;;;20.00;95.00;;;;;;5038223;28;20053;-80
2022/06/24 04:45:28;;;;;;;5.43;4.93;;;20.10;94.90;;;;;;5025056;28;20045;-81
2022/06/24 04:47:54;;;;;;;7.18;4.97;;;20.20;94.80;;;;;;5023991;28;20799;-80
2022/06/24 04:50:20;;;;;;;10.95;5.40;;;20.20;94.80;;;;;;5019286;28;20509;-81
2022/06/24 04:52:45;;;;;;;4.85;4.45;;;20.30;94.60;;;;;;5030606;28;20062;-80
2022/06/24 04:55:11;;;;;;;5.55;5.03;;;20.40;94.60;;;;;;5019664;28;20049;-80
2022/06/24 04:57:38;;;;;;;6.03;5.22;;;20.40;94.30;;;;;;5029972;28;20052;-76
2022/06/24 05:00:05;;;;;;;7.22;4.95;;;20.50;94.20;;;;;;5025816;28;20110;-79
2022/06/24 05:02:31;;;;;;;8.25;5.32;;;20.50;94.30;;;;;;5026112;28;20160;-78
2022/06/24 05:04:56;;;;;;;5.60;4.82;;;20.50;94.30;;;;;;5020224;28;20778;-80
2022/06/24 05:07:22;;;;;;;7.18;4.78;;;20.50;94.80;;;;;;5027956;28;20096;-76
2022/06/24 05:09:48;;;;;;;4.68;4.28;;;20.50;95.10;;;;;;5021167;28;20052;-80
2022/06/24 05:12:13;;;;;;;7.40;4.78;;;20.60;94.90;;;;;;5030532;28;20045;-81
2022/06/24 05:14:39;;;;;;;5.38;4.50;;;20.70;94.90;;;;;;5032034;28;20756;-80
2022/06/24 05:17:05;;;;;;;12.65;5.05;;;20.70;95.20;;;;;;5021359;28;20045;-80
2022/06/24 05:19:30;;;;;;;6.18;4.30;;;20.90;95.10;;;;;;5029793;28;20061;-79
2022/06/24 05:21:56;;;;;;;5.32;4.93;;;20.90;94.90;;;;;;5028354;28;20057;-82
2022/06/24 05:24:22;;;;;;;5.63;5.07;;;21.00;95.00;;;;;;5036992;28;20048;-77
2022/06/24 05:26:49;;;;;;;5.20;4.65;;;21.00;94.80;;;;;;5024250;28;20791;-77
2022/06/24 05:29:15;;;;;;;5.22;4.30;;;21.00;94.80;;;;;;5022868;28;20133;-80
2022/06/24 05:31:42;;;;;;;5.53;4.05;;;21.10;95.00;;;;;;5028385;28;20115;-81
2022/06/24 05:34:07;;;;;;;4.13;3.80;;;21.20;94.70;;;;;;5044416;28;20064;-77
2022/06/24 05:36:34;;;;;;;4.82;4.43;;;21.30;94.90;;;;;;5027476;28;20053;-78
2022/06/24 05:39:04;;;;;;;5.15;4.13;;;21.10;94.50;;;;;;5017776;28;20049;-81
2022/06/24 05:41:30;;;;;;;5.82;5.18;;;21.50;94.30;;;;;;5021738;28;20652;-77
2022/06/24 05:43:55;;;;;;;5.85;5.25;;;21.60;94.50;;;;;;5036628;28;20051;-82
2022/06/24 05:46:21;;;;;;;7.32;4.93;;;21.50;94.50;;;;;;5033994;28;20046;-82
2022/06/24 05:48:47;;;;;;;8.55;5.60;;;21.50;94.70;;;;;;5034252;28;20037;-79
2022/06/24 05:51:17;;;;;;;7.95;5.72;;;21.50;94.60;;;;;;5033301;28;20576;-79
2022/06/24 05:56:29;;;;;;;10.95;6.00;;;21.40;95.20;;;;;;5030594;28;20059;-78
2022/06/24 05:58:55;;;;;;;6.97;6.25;;;21.30;95.60;;;;;;5023704;28;20045;-78
2022/06/24 06:01:21;;;;;;;9.20;5.88;;;21.20;96.20;;;;;;5039849;28;20103;-78
2022/06/24 06:03:47;;;;;;;7.75;6.03;;;21.10;96.70;;;;;;5014592;28;20139;-78
2022/06/24 06:06:13;;;;;;;8.10;7.28;;;21.10;97.30;;;;;;5030570;28;20769;-79
2022/06/24 06:08:39;;;;;;;13.15;8.23;;;21.00;97.70;;;;;;5025614;28;20049;-79
2022/06/24 06:11:17;;;;;;;25.70;11.73;;;21.00;99.90;;;;;;5020669;28;20098;-78
2022/06/24 06:13:44;;;;;;;13.65;8.75;;;20.90;99.90;;;;;;5031619;28;20055;-78
2022/06/24 06:16:11;;;;;;;10.73;8.95;;;20.70;99.90;;;;;;5022542;28;20536;-78
2022/06/24 06:18:37;;;;;;;13.52;10.27;;;20.70;99.90;;;;;;5026637;28;20400;-78
2022/06/24 06:21:05;;;;;;;16.35;9.88;;;20.60;99.90;;;;;;5030968;28;20049;-75
2022/06/24 06:23:31;;;;;;;13.63;10.00;;;20.60;99.90;;;;;;5027137;28;20623;-75
2022/06/24 06:25:58;;;;;;;20.00;10.75;;;20.40;99.90;;;;;;5028592;28;20143;-77
2022/06/24 06:28:24;;;;;;;24.60;10.18;;;20.40;99.90;;;;;;5022030;28;20432;-78
2022/06/24 06:30:50;;;;;;;12.95;10.00;;;20.40;99.90;;;;;;5029122;28;20443;-76
2022/06/24 06:33:16;;;;;;;13.85;10.00;;;20.30;99.90;;;;;;5024674;28;20045;-77
2022/06/24 06:35:42;;;;;;;12.77;10.70;;;20.40;99.90;;;;;;5023772;28;20187;-75
2022/06/24 06:38:07;;;;;;;12.35;10.38;;;20.50;99.90;;;;;;5026937;28;20045;-75
2022/06/24 06:40:37;;;;;;;14.30;10.82;;;20.50;99.90;;;;;;5020097;28;20499;-76
2022/06/24 06:43:05;;;;;;;12.77;10.40;;;20.70;99.90;;;;;;5025224;28;20056;-77
2022/06/24 06:45:35;;;;;;;11.32;10.18;;;20.70;99.90;;;;;;5021314;28;20045;-77
2022/06/24 06:48:01;;;;;;;13.07;9.90;;;20.50;99.90;;;;;;5028320;28;20495;-75
2022/06/24 06:50:27;;;;;;;14.98;11.48;;;20.50;99.90;;;;;;5023945;28;20049;-77
2022/06/24 06:52:53;;;;;;;11.55;10.32;;;20.60;99.90;;;;;;5022957;28;20045;-77
2022/06/24 06:55:19;;;;;;;11.73;8.73;;;20.40;99.90;;;;;;5024244;28;20072;-76
2022/06/24 06:57:46;;;;;;;14.98;10.68;;;20.70;99.90;;;;;;5027069;28;20037;-76
2022/06/24 07:00:14;;;;;;;16.13;10.88;;;20.70;99.90;;;;;;5031658;28;20599;-75
2022/06/24 07:02:40;;;;;;;22.40;14.23;;;20.60;99.90;;;;;;5021152;28;20049;-77
2022/06/24 07:05:06;;;;;;;13.32;11.25;;;20.60;99.90;;;;;;5016492;28;20168;-77
2022/06/24 07:07:32;;;;;;;15.70;11.57;;;20.60;99.90;;;;;;5021248;28;20048;-77
2022/06/24 07:09:58;;;;;;;14.48;11.65;;;20.50;99.90;;;;;;5029331;28;20049;-75
2022/06/24 07:12:24;;;;;;;18.23;11.23;;;20.50;99.90;;;;;;5026492;28;20135;-75
2022/06/24 07:14:50;;;;;;;13.07;11.48;;;20.50;99.90;;;;;;5022046;28;20127;-74
2022/06/24 07:17:17;;;;;;;13.25;10.32;;;20.50;99.90;;;;;;5020572;28;20045;-73
2022/06/24 07:19:44;;;;;;;15.10;11.32;;;20.50;99.90;;;;;;5024093;28;20061;-73
2022/06/24 07:22:10;;;;;;;12.50;10.13;;;20.50;99.90;;;;;;5021291;28;20045;-73
2022/06/24 07:24:36;;;;;;;11.55;9.93;;;20.50;99.90;;;;;;5020456;28;20087;-73
2022/06/24 07:27:07;;;;;;;13.15;10.15;;;20.50;99.90;;;;;;5019962;28;20622;-72
2022/06/24 07:29:34;;;;;;;14.43;9.25;;;20.50;99.90;;;;;;5020294;28;20057;-74
2022/06/24 07:32:04;;;;;;;11.13;8.02;;;20.40;99.90;;;;;;5018701;28;20037;-73
2022/06/24 07:34:33;;;;;;;12.57;8.70;;;20.50;99.90;;;;;;5025517;28;20086;-73
2022/06/24 07:37:00;;;;;;;11.55;7.75;;;20.50;99.90;;;;;;5021886;28;20540;-74
2022/06/24 07:39:26;;;;;;;14.60;9.30;;;20.50;99.90;;;;;;5032139;28;20049;-74
2022/06/24 07:41:53;;;;;;;15.95;10.48;;;20.60;99.90;;;;;;5024008;28;20486;-76
2022/06/24 07:44:19;;;;;;;14.00;10.00;;;20.60;99.90;;;;;;5025327;28;20484;-72
2022/06/24 07:46:45;;;;;;;13.13;8.77;;;20.60;99.90;;;;;;5023625;28;20102;-73
2022/06/24 07:49:11;;;;;;;8.10;7.22;;;20.60;99.90;;;;;;5025574;28;20572;-73
2022/06/24 07:51:37;;;;;;;8.98;6.70;;;20.50;99.90;;;;;;5024570;28;20091;-73
2022/06/24 07:54:05;;;;;;;9.25;6.65;;;20.50;99.90;;;;;;5019385;28;20057;-73
2022/06/24 07:59:16;;;;;;;10.57;8.82;;;20.50;99.90;;;;;;5028069;28;20807;-75
2022/06/24 08:01:41;;;;;;;11.55;7.93;;;20.50;99.90;;;;;;5022731;28;20037;-73
2022/06/24 08:04:10;;;;;;;10.05;6.93;;;20.50;99.90;;;;;;5024915;28;20045;-72
2022/06/24 08:06:40;;;;;;;6.75;6.10;;;20.60;99.90;;;;;;5018949;28;20056;-75
2022/06/24 08:09:07;;;;;;;8.20;7.40;;;20.50;99.90;;;;;;5019264;28;20052;-72
2022/06/24 08:11:33;;;;;;;8.25;6.35;;;20.60;99.90;;;;;;5018681;28;20041;-75
2022/06/24 08:13:59;;;;;;;11.40;6.63;;;20.60;99.90;;;;;;5018430;28;20629;-73
2022/06/24 08:16:25;;;;;;;7.22;5.70;;;20.70;99.90;;;;;;5018181;28;20045;-73
2022/06/24 08:18:52;;;;;;;6.78;6.05;;;20.70;99.90;;;;;;5019167;28;20049;-72
2022/06/24 08:21:17;;;;;;;7.85;6.35;;;20.80;99.90;;;;;;5019105;28;20057;-72
2022/06/24 08:23:43;;;;;;;6.72;5.70;;;20.90;99.90;;;;;;5022852;28;20077;-72
2022/06/24 08:26:09;;;;;;;7.15;6.03;;;20.90;99.90;;;;;;5023690;28;20766;-73
2022/06/24 08:28:35;;;;;;;6.75;5.15;;;20.90;99.90;;;;;;5020673;28;20503;-73
2022/06/24 08:31:04;;;;;;;5.30;4.72;;;21.00;99.90;;;;;;5021331;28;20682;-72
2022/06/24 08:33:29;;;;;;;7.65;5.65;;;21.00;99.90;;;;;;5023459;28;20037;-74
2022/06/24 08:35:55;;;;;;;6.50;5.90;;;21.10;99.90;;;;;;5018437;28;20081;-73
2022/06/24 08:38:21;;;;;;;4.85;4.43;;;21.30;99.90;;;;;;5018070;28;20045;-73
2022/06/24 08:40:48;;;;;;;7.28;5.80;;;21.40;99.90;;;;;;5019637;28;20052;-73
2022/06/24 08:43:14;;;;;;;5.75;5.15;;;21.50;99.90;;;;;;5016510;28;20061;-74
2022/06/24 08:45:41;;;;;;;5.57;4.68;;;21.70;99.90;;;;;;5024625;28;20041;-75
2022/06/24 08:48:08;;;;;;;6.20;5.07;;;22.00;99.90;;;;;;4671545;28;10000076;-73
2022/06/24 08:50:34;;;;;;;5.93;4.90;;;22.00;99.90;;;;;;5019159;28;20064;-74
2022/06/24 08:53:04;;;;;;;5.90;5.30;;;22.00;99.90;;;;;;5023217;28;20049;-74
2022/06/24 08:55:35;;;;;;;5.75;5.10;;;21.90;99.90;;;;;;5015705;28;20054;-74
2022/06/24 08:58:09;;;;;;;5.72;5.20;;;21.90;99.90;;;;;;5020880;28;20045;-73
2022/06/24 09:00:35;;;;;;;7.45;4.78;;;21.80;99.90;;;;;;5023040;28;20045;-74
2022/06/24 09:03:03;;;;;;;6.43;5.20;;;21.50;99.90;;;;;;5021901;28;20080;-74
2022/06/24 09:05:29;;;;;;;5.97;5.38;;;21.70;99.90;;;;;;5017185;28;20059;-73
2022/06/24 09:08:10;;;;;;;11.00;6.18;;;21.70;99.90;;;;;;5023930;28;20071;-74
2022/06/24 09:10:38;;;;;;;8.18;5.65;;;21.70;99.90;;;;;;5020501;28;20064;-72
2022/06/24 09:13:05;;;;;;;9.00;5.40;;;21.60;99.90;;;;;;5020519;28;20099;-72
2022/06/24 09:15:32;;;;;;;8.88;5.30;;;21.60;99.90;;;;;;5029278;28;20049;-73
2022/06/24 09:17:59;;;;;;;6.15;4.85;;;21.60;99.90;;;;;;5025741;28;20084;-73
2022/06/24 09:20:27;;;;;;;7.97;6.22;;;21.70;99.90;;;;;;5020685;28;20162;-73
2022/06/24 09:23:08;;;;;;;6.53;5.13;;;21.70;99.90;;;;;;5024918;28;20476;-72
2022/06/24 09:25:46;;;;;;;5.63;4.88;;;21.80;99.90;;;;;;5024375;28;20095;-73
2022/06/24 09:28:22;;;;;;;6.18;5.03;;;21.80;99.90;;;;;;5021273;28;20516;-73
2022/06/24 09:30:48;;;;;;;5.75;5.10;;;21.80;99.90;;;;;;5026894;28;20083;-73
2022/06/24 09:33:18;;;;;;;8.40;7.05;;;21.60;99.90;;;;;;5025687;28;20846;-73
2022/06/24 09:35:44;;;;;;;5.90;5.30;;;21.60;99.90;;;;;;5026923;28;20063;-74
2022/06/24 09:38:11;;;;;;;5.60;5.00;;;21.50;99.90;;;;;;5026673;28;20432;-73
2022/06/24 09:40:38;;;;;;;6.20;5.65;;;21.40;99.90;;;;;;5017544;28;20087;-72
2022/06/24 09:43:09;;;;;;;6.78;5.55;;;21.30;99.90;;;;;;5026805;28;20089;-74
2022/06/24 09:45:49;;;;;;;6.47;5.35;;;21.40;99.90;;;;;;5025741;28;20052;-73
2022/06/24 09:48:38;;;;;;;4.88;4.45;;;21.40;99.90;;;;;;5031504;28;20083;-73
2022/06/24 09:51:07;;;;;;;5.07;4.65;;;21.50;99.90;;;;;;5019843;28;20057;-74
2022/06/24 09:53:40;;;;;;;5.78;4.57;;;21.50;99.90;;;;;;5023431;28;20060;-73
2022/06/24 09:56:07;;;;;;;6.68;5.32;;;21.60;99.90;;;;;;5022710;28;20160;-74
2022/06/24 09:58:37;;;;;;;4.85;4.35;;;21.70;99.90;;;;;;5028825;28;20041;-74
2022/06/24 10:01:03;;;;;;;5.93;5.30;;;21.70;99.90;;;;;;5023698;28;20037;-74
2022/06/24 10:03:29;;;;;;;4.53;3.83;;;21.80;99.90;;;;;;5033899;28;20193;-73
2022/06/24 10:06:04;;;;;;;5.30;4.78;;;21.60;99.90;;;;;;5029877;28;20044;-74
2022/06/24 10:08:33;;;;;;;4.40;4.00;;;21.60;99.90;;;;;;5033010;28;20049;-73
2022/06/24 10:11:00;;;;;;;6.97;4.88;;;21.40;99.90;;;;;;5017953;28;20376;-73
2022/06/24 10:13:29;;;;;;;5.28;4.20;;;21.30;99.90;;;;;;5021957;28;20076;-74
2022/06/24 10:15:56;;;;;;;4.57;3.80;;;21.20;99.90;;;;;;5030961;28;20045;-71
2022/06/24 10:18:43;;;;;;;5.47;4.35;;;21.00;99.90;;;;;;5016557;28;20227;-73
2022/06/24 10:21:10;;;;;;;7.43;4.40;;;20.90;99.90;;;;;;5024333;28;20098;-74
2022/06/24 10:23:43;;;;;;;13.07;6.07;;;20.80;99.90;;;;;;5026640;28;20091;-71
2022/06/24 10:26:26;;;;;;;21.55;6.13;;;20.60;99.90;;;;;;5029089;28;20940;-73
2022/06/24 10:29:04;;;;;;;10.23;5.75;;;20.40;99.90;;;;;;5019292;28;20620;-75
2022/06/24 10:31:44;;;;;;;7.15;5.18;;;20.30;99.90;;;;;;5031354;28;20484;-73
2022/06/24 10:34:13;;;;;;;6.10;4.38;;;20.20;99.90;;;;;;5025490;28;20068;-72
2022/06/24 10:36:39;;;;;;;6.43;4.70;;;20.00;99.90;;;;;;5021758;28;20416;-70
2022/06/24 10:39:14;;;;;;;7.43;5.40;;;19.90;99.90;;;;;;5026616;28;20060;-70
2022/06/24 10:41:44;;;;;;;15.07;5.15;;;19.80;99.90;;;;;;5029452;28;20441;-69
2022/06/24 10:44:29;;;;;;;7.10;4.75;;;19.70;99.90;;;;;;5020358;28;20041;-70
2022/06/24 10:47:21;;;;;;;4.82;3.90;;;19.60;99.90;;;;;;5017809;28;20056;-71
2022/06/24 10:49:55;;;;;;;6.78;4.63;;;19.40;99.90;;;;;;5014717;28;20049;-71
2022/06/24 10:52:45;;;;;;;6.50;5.13;;;19.30;99.90;;;;;;5019398;28;20050;-72
2022/06/24 10:55:29;;;;;;;8.95;3.75;;;19.30;99.90;;;;;;5018674;28;20045;-72
2022/06/24 10:58:04;;;;;;;4.57;3.75;;;19.20;99.90;;;;;;5015496;28;20233;-72
2022/06/24 11:00:39;;;;;;;5.55;3.88;;;19.20;99.90;;;;;;5009362;28;20051;-71
2022/06/24 11:03:04;;;;;;;6.05;3.42;;;19.10;99.90;;;;;;5008937;28;20049;-71
2022/06/24 11:05:39;;;;;;;3.13;2.83;;;19.10;99.90;;;;;;5016661;28;20079;-71
2022/06/24 11:08:13;;;;;;;5.85;3.10;;;19.10;99.90;;;;;;5018847;28;20147;-71
2022/06/24 11:10:39;;;;;;;3.47;2.83;;;19.10;99.90;;;;;;5023787;28;20041;-71
2022/06/24 11:13:05;;;;;;;3.72;2.45;;;19.00;99.90;;;;;;5020988;28;20038;-71
2022/06/24 11:15:46;;;;;;;4.07;3.03;;;19.00;99.90;;;;;;5020013;28;20067;-71
2022/06/24 11:18:17;;;;;;;5.63;2.72;;;18.90;99.90;;;;;;5021326;28;20155;-71
2022/06/24 11:20:59;;;;;;;4.95;3.25;;;18.90;99.90;;;;;;5030233;28;20569;-71
2022/06/24 11:23:29;;;;;;;3.25;2.00;;;18.90;99.90;;;;;;5025557;28;20049;-72
2022/06/24 11:26:06;;;;;;;6.93;3.40;;;18.90;99.90;;;;;;5022350;28;21028;-72
2022/06/24 11:28:36;;;;;;;2.92;2.40;;;18.90;99.90;;;;;;5020539;28;20463;-71
2022/06/24 11:31:26;;;;;;;3.95;2.72;;;18.90;99.90;;;;;;5024673;28;20041;-72
2022/06/24 11:34:02;;;;;;;3.33;2.47;;;18.80;99.90;;;;;;5019236;28;20091;-71
2022/06/24 11:36:31;;;;;;;2.92;2.10;;;18.80;99.90;;;;;;5019270;28;20054;-72
2022/06/24 11:38:58;;;;;;;3.88;2.20;;;18.80;99.90;;;;;;5033090;28;20236;-71
2022/06/24 11:41:40;;;;;;;2.78;2.33;;;18.80;99.90;;;;;;5022408;28;20045;-71
2022/06/24 11:44:06;;;;;;;2.53;2.33;;;18.80;99.90;;;;;;5012867;28;20080;-71
2022/06/24 11:46:32;;;;;;;3.08;2.22;;;18.80;99.90;;;;;;5018539;28;20489;-71
2022/06/24 11:49:12;;;;;;;2.30;2.10;;;18.80;99.90;;;;;;5018816;28;20053;-71
2022/06/24 11:51:39;;;;;;;4.00;2.50;;;18.90;99.90;;;;;;5018284;28;20760;-71
2022/06/24 11:54:06;;;;;;;3.15;2.20;;;19.00;99.90;;;;;;5016494;28;20528;-71
2022/06/24 11:56:34;;;;;;;2.85;2.55;;;19.00;99.90;;;;;;5022169;28;20049;-71
2022/06/24 11:59:02;;;;;;;3.00;2.33;;;19.20;99.90;;;;;;5019316;28;20044;-71
2022/06/24 12:01:29;;;;;;;3.10;2.25;;;19.30;99.90;;;;;;5017350;28;20160;-72
2022/06/24 12:03:57;;;;;;;3.60;2.75;;;19.50;99.90;;;;;;5021712;28;20127;-71
2022/06/24 12:06:24;;;;;;;3.75;2.70;;;19.60;99.90;;;;;;5022826;28;20054;-71
2022/06/24 12:08:51;;;;;;;3.67;2.63;;;19.80;99.90;;;;;;5021057;28;20037;-71
2022/06/24 12:11:21;;;;;;;3.15;2.85;;;19.70;99.90;;;;;;5016703;28;20047;-71
2022/06/24 12:14:05;;;;;;;3.13;2.70;;;19.80;99.90;;;;;;5019154;28;20044;-72
2022/06/24 12:16:54;;;;;;;3.97;3.42;;;19.80;99.90;;;;;;5019414;28;20048;-71
2022/06/24 12:19:20;;;;;;;4.35;2.88;;;19.80;99.90;;;;;;5022063;28;20183;-71
2022/06/24 12:21:46;;;;;;;3.13;2.85;;;19.80;99.90;;;;;;5021812;28;20052;-71
2022/06/24 12:24:22;;;;;;;3.17;2.88;;;19.90;99.90;;;;;;5020751;28;20119;-72
2022/06/24 12:26:51;;;;;;;4.10;3.15;;;20.00;99.90;;;;;;5021972;28;20162;-72
2022/06/24 12:29:24;;;;;;;4.50;3.53;;;20.10;99.90;;;;;;5023820;28;20056;-71
2022/06/24 12:31:50;;;;;;;3.95;3.22;;;20.20;99.90;;;;;;5019806;28;20223;-71
2022/06/24 12:34:26;;;;;;;3.88;3.58;;;20.30;99.90;;;;;;5026604;28;20095;-72
2022/06/24 12:37:01;;;;;;;5.68;3.90;;;20.40;99.90;;;;;;5022776;28;20099;-72
2022/06/24 12:39:29;;;;;;;4.97;3.90;;;20.50;99.90;;;;;;5022872;28;20049;-71
2022/06/24 12:41:55;;;;;;;4.40;4.00;;;20.60;99.90;;;;;;5024578;28;20167;-71
2022/06/24 12:44:22;;;;;;;4.07;3.65;;;20.90;99.90;;;;;;5017696;28;20758;-71
2022/06/24 12:52:36;;;;;;;5.87;4.17;;;21.40;99.90;;;;;;5023890;28;20049;-71
2022/06/24 12:55:04;;;;;;;5.75;4.47;;;21.60;99.90;;;;;;5023099;28;20287;-72
2022/06/24 12:57:29;;;;;;;5.72;4.38;;;22.40;99.90;;;;;;5020396;28;20148;-76
2022/06/24 12:59:55;;;;;;;4.38;3.97;;;21.80;99.90;;;;;;5026814;28;20044;-69
2022/06/24 13:02:21;;;;;;;4.97;3.65;;;21.70;99.90;;;;;;5027806;28;20049;-71
2022/06/24 13:04:47;;;;;;;4.72;4.22;;;21.60;99.90;;;;;;5023732;28;20485;-72
2022/06/24 13:07:13;;;;;;;5.20;4.28;;;21.70;99.90;;;;;;5021984;28;20496;-72